Time;durP1;ratioP1;P1;durP2;ratioP2;P2;SDS_P1;SDS_P2;PMS_P1;PMS_P2;Temp;Humidity;BMP_temperature;BMP_pressure;BME280_temperature;BME280_humidity;BME280_pressure;Samples;Min_cycle;Max_cycle;Signal;HPM_P1;HPM_P2
2022/07/15 00:03:41;;;;;;;6.15;2.20;;;;;;;16.29;48.02;100315.97;10402388;28;20057;-80
2022/07/15 00:08:43;;;;;;;6.85;2.20;;;;;;;16.43;47.96;100310.47;10400536;28;20131;-80
2022/07/15 00:13:45;;;;;;;4.88;2.00;;;;;;;16.01;48.24;100315.47;10400546;28;20049;-80
2022/07/15 00:18:47;;;;;;;7.10;2.53;;;;;;;15.87;49.08;100312.19;10399175;28;20446;-80
2022/07/15 00:23:48;;;;;;;6.05;2.28;;;;;;;16.00;48.86;100307.66;10401788;28;20136;-80
2022/07/15 00:28:52;;;;;;;5.22;2.17;;;;;;;15.99;48.87;100312.13;10399813;28;20049;-79
2022/07/15 00:33:53;;;;;;;5.90;2.50;;;;;;;15.89;49.58;100312.94;10399937;28;20918;-80
2022/07/15 00:38:55;;;;;;;5.88;2.33;;;;;;;15.74;49.85;100309.63;10399236;28;20049;-80
2022/07/15 00:43:58;;;;;;;7.97;2.08;;;;;;;15.69;49.39;100309.16;10414923;28;20049;-80
2022/07/15 00:49:01;;;;;;;5.53;2.20;;;;;;;15.73;48.80;100312.41;10397403;28;20457;-80
2022/07/15 00:54:09;;;;;;;6.03;2.00;;;;;;;15.84;49.24;100313.25;10400578;28;20056;-80
2022/07/15 00:59:12;;;;;;;5.25;2.10;;;;;;;15.93;49.47;100311.72;10397384;28;20461;-80
2022/07/15 01:04:17;;;;;;;6.32;2.13;;;;;;;15.85;49.82;100322.03;10398113;28;20065;-80
2022/07/15 01:09:20;;;;;;;5.03;2.20;;;;;;;15.52;50.06;100312.19;10398220;28;20041;-81
2022/07/15 01:14:21;;;;;;;7.13;2.40;;;;;;;15.20;50.50;100311.06;10396756;28;20293;-80
2022/07/15 01:19:23;;;;;;;5.90;2.30;;;;;;;15.15;50.62;100314.03;10396484;28;20057;-80
2022/07/15 01:24:25;;;;;;;5.85;2.20;;;;;;;15.06;50.87;100319.94;10399799;28;20133;-80
2022/07/15 01:29:28;;;;;;;4.40;1.95;;;;;;;15.00;50.93;100323.00;10412987;28;20530;-80
2022/07/15 01:34:29;;;;;;;6.30;2.33;;;;;;;14.92;50.84;100329.81;10412622;28;20057;-80
2022/07/15 01:39:31;;;;;;;5.35;2.10;;;;;;;15.11;50.89;100330.16;10397066;28;20045;-80
2022/07/15 01:44:39;;;;;;;5.38;2.08;;;;;;;15.21;50.43;100328.53;10396973;28;20056;-80
2022/07/15 01:49:41;;;;;;;4.90;2.30;;;;;;;15.26;50.27;100327.28;10397083;28;20103;-80
2022/07/15 01:54:42;;;;;;;5.18;2.00;;;;;;;15.21;50.57;100329.38;10398687;28;20080;-80
2022/07/15 01:59:44;;;;;;;4.93;2.20;;;;;;;15.11;50.60;100333.63;10398173;28;20057;-80
2022/07/15 02:04:46;;;;;;;5.30;2.22;;;;;;;15.13;50.42;100342.28;10398886;28;20056;-80
2022/07/15 02:09:48;;;;;;;4.97;2.20;;;;;;;15.20;50.42;100342.69;10394143;28;20053;-80
2022/07/15 02:14:50;;;;;;;5.70;2.45;;;;;;;15.14;50.43;100336.03;10400852;28;20095;-80
2022/07/15 02:19:52;;;;;;;6.55;2.38;;;;;;;15.00;50.82;100340.63;10400631;28;20057;-79
2022/07/15 02:24:53;;;;;;;4.63;2.10;;;;;;;14.84;51.54;100342.69;10400741;28;20057;-80
2022/07/15 02:29:56;;;;;;;7.85;2.30;;;;;;;14.76;51.55;100343.19;10407982;28;20099;-79
2022/07/15 02:34:58;;;;;;;4.25;2.30;;;;;;;14.85;51.55;100341.72;10408893;28;20123;-80
2022/07/15 02:40:00;;;;;;;6.43;2.28;;;;;;;14.85;51.46;100345.19;10411174;28;20061;-80
2022/07/15 02:45:03;;;;;;;8.15;3.00;;;;;;;14.89;51.65;100346.66;10409516;28;20122;-80
2022/07/15 02:50:05;;;;;;;6.07;2.50;;;;;;;14.79;52.12;100353.53;10408089;28;20064;-80
2022/07/15 02:55:08;;;;;;;7.10;2.50;;;;;;;14.82;52.09;100360.38;10410200;28;20049;-80
2022/07/15 03:00:13;;;;;;;5.35;2.10;;;;;;;14.84;51.85;100364.56;10409450;28;20538;-80
2022/07/15 03:05:17;;;;;;;5.53;2.20;;;;;;;14.94;51.65;100364.78;10397375;28;20057;-80
2022/07/15 03:10:19;;;;;;;4.88;2.40;;;;;;;15.02;51.65;100370.34;10405894;28;20450;-80
2022/07/15 03:15:21;;;;;;;5.22;2.20;;;;;;;15.04;51.62;100369.25;10402863;28;20107;-80
2022/07/15 03:20:22;;;;;;;5.40;2.40;;;;;;;15.10;51.07;100381.19;10396152;28;20100;-80
2022/07/15 03:25:24;;;;;;;6.75;2.38;;;;;;;15.10;50.98;100384.63;10403186;28;20881;-80
2022/07/15 03:30:26;;;;;;;8.00;2.50;;;;;;;15.03;51.06;100404.47;10419549;28;20053;-80
2022/07/15 03:35:28;;;;;;;6.22;2.20;;;;;;;15.07;51.08;100405.94;10402067;28;20053;-80
2022/07/15 03:40:30;;;;;;;10.07;2.75;;;;;;;15.22;50.90;100414.53;10395282;28;20568;-80
2022/07/15 03:45:31;;;;;;;6.45;2.08;;;;;;;15.24;51.02;100418.75;10394176;28;20084;-80
2022/07/15 03:50:35;;;;;;;6.88;2.53;;;;;;;15.31;50.86;100424.41;10403032;28;20053;-80
2022/07/15 03:55:37;;;;;;;6.30;2.60;;;;;;;15.04;51.56;100421.94;10394945;28;20118;-81
2022/07/15 04:00:39;;;;;;;6.38;2.40;;;;;;;14.91;51.98;100430.81;10402343;28;20057;-80
2022/07/15 04:05:41;;;;;;;4.78;2.28;;;;;;;15.12;51.50;100434.59;10400607;28;20123;-80
2022/07/15 04:10:43;;;;;;;6.05;2.40;;;;;;;15.14;51.45;100432.69;10401177;28;20479;-80
2022/07/15 04:15:46;;;;;;;7.45;2.30;;;;;;;15.31;51.46;100437.59;10415422;28;20111;-80
2022/07/15 04:20:48;;;;;;;4.68;2.30;;;;;;;15.43;51.10;100440.19;10402216;28;20081;-80
2022/07/15 04:25:53;;;;;;;4.20;1.95;;;;;;;15.52;50.93;100441.38;10400057;28;20053;-80
2022/07/15 04:30:55;;;;;;;5.20;2.08;;;;;;;15.70;50.51;100437.41;10399865;28;20099;-80
2022/07/15 04:35:56;;;;;;;9.73;2.20;;;;;;;15.63;50.64;100444.09;10399007;28;20057;-80
2022/07/15 04:40:58;;;;;;;7.22;2.40;;;;;;;15.82;50.45;100454.97;10399877;28;20049;-80
2022/07/15 04:46:00;;;;;;;5.45;2.15;;;;;;;16.02;49.94;100453.50;10398250;28;20069;-80
2022/07/15 04:51:02;;;;;;;5.00;2.13;;;;;;;16.47;49.42;100451.91;10398631;28;20081;-80
2022/07/15 04:56:04;;;;;;;6.93;2.15;;;;;;;16.76;48.48;100454.00;10394841;28;20061;-80
2022/07/15 05:01:08;;;;;;;9.82;2.40;;;;;;;16.79;48.65;100455.56;10398369;28;20054;-80
2022/07/15 05:06:10;;;;;;;5.70;2.20;;;;;;;17.72;47.09;100453.38;10396764;28;20053;-80
2022/07/15 05:11:12;;;;;;;4.75;1.98;;;;;;;17.34;47.55;100452.97;10397745;28;20049;-80
2022/07/15 05:16:14;;;;;;;4.78;1.80;;;;;;;17.21;47.83;100448.72;10396752;28;20055;-81
2022/07/15 05:21:16;;;;;;;6.80;2.28;;;;;;;17.15;47.91;100454.47;10394820;28;20537;-81
2022/07/15 05:26:25;;;;;;;8.13;2.10;;;;;;;17.47;47.49;100464.22;10397498;28;20050;-80
2022/07/15 05:31:35;;;;;;;5.22;2.30;;;;;;;17.77;46.58;100467.03;10395176;28;20137;-80
2022/07/15 05:36:37;;;;;;;5.95;2.05;;;;;;;17.87;46.74;100466.31;10397721;28;20053;-80
2022/07/15 05:41:38;;;;;;;6.88;2.30;;;;;;;17.99;46.52;100462.66;10390856;28;20100;-80
2022/07/15 05:46:48;;;;;;;15.10;2.17;;;;;;;18.00;46.76;100461.69;10392761;28;20049;-80
2022/07/15 05:51:49;;;;;;;11.55;2.72;;;;;;;18.20;45.75;100469.69;10386710;28;20494;-81
2022/07/15 05:56:51;;;;;;;7.03;2.28;;;;;;;18.50;45.28;100463.66;10392337;28;20062;-81
2022/07/15 06:01:53;;;;;;;5.75;2.10;;;;;;;18.72;44.36;100474.13;10393243;28;20839;-80
2022/07/15 06:06:55;;;;;;;9.05;2.20;;;;;;;18.62;44.28;100468.78;10394503;28;20499;-80
2022/07/15 06:11:58;;;;;;;8.02;2.13;;;;;;;18.28;45.04;100477.03;10395148;28;20073;-81
2022/07/15 06:17:00;;;;;;;7.35;2.30;;;;;;;18.36;44.83;100485.97;10393815;28;20084;-80
2022/07/15 06:22:02;;;;;;;8.13;3.03;;;;;;;18.33;44.76;100475.66;10395197;28;20053;-80
2022/07/15 06:27:04;;;;;;;10.02;2.40;;;;;;;18.29;44.90;100481.34;10392170;28;20068;-81
2022/07/15 06:32:07;;;;;;;7.45;2.50;;;;;;;18.87;44.07;100477.28;10394639;28;20096;-80
2022/07/15 06:37:09;;;;;;;5.97;2.20;;;;;;;18.93;43.75;100477.56;10383415;28;20495;-80
2022/07/15 06:42:11;;;;;;;10.85;2.55;;;;;;;18.97;43.64;100479.00;10393271;28;20095;-80
2022/07/15 06:47:13;;;;;;;5.32;2.20;;;;;;;19.07;43.47;100473.78;10392230;28;20482;-80
2022/07/15 06:52:15;;;;;;;4.60;1.90;;;;;;;19.26;43.12;100476.50;10394781;28;20045;-80
2022/07/15 06:57:16;;;;;;;7.55;2.10;;;;;;;19.78;42.47;100481.56;10392950;28;20139;-79
2022/07/15 07:02:21;;;;;;;6.53;2.13;;;;;;;20.20;41.63;100484.84;10393439;28;20059;-80
2022/07/15 07:07:22;;;;;;;7.07;2.38;;;;;;;20.75;40.45;100484.13;10388325;28;21911;-81
2022/07/15 07:12:28;;;;;;;6.93;2.30;;;;;;;21.09;39.52;100484.44;10380985;28;20136;-79
2022/07/15 07:17:30;;;;;;;9.52;2.28;;;;;;;21.28;39.72;100486.19;10396469;28;20127;-80
2022/07/15 07:22:33;;;;;;;9.55;2.83;;;;;;;21.57;39.22;100484.28;10391061;28;20559;-79
2022/07/15 07:27:44;;;;;;;7.60;2.67;;;;;;;21.62;38.50;100488.16;10389907;28;20049;-79
2022/07/15 07:32:47;;;;;;;9.15;2.80;;;;;;;22.07;37.90;100484.69;10393492;28;20091;-79
2022/07/15 07:37:49;;;;;;;11.75;3.05;;;;;;;23.56;35.82;100482.59;10394107;28;20041;-80
2022/07/15 07:42:57;;;;;;;8.77;2.38;;;;;;;25.35;32.49;100456.56;10395547;28;20696;-80
2022/07/15 07:48:05;;;;;;;5.40;2.10;;;;;;;25.53;29.92;100453.66;10391431;28;20495;-81
2022/07/15 07:53:14;;;;;;;6.70;2.35;;;;;;;26.11;29.22;100442.41;10395941;28;20057;-81
2022/07/15 07:58:17;;;;;;;9.68;2.20;;;;;;;24.47;32.09;100452.19;10390694;28;20064;-80
2022/07/15 08:03:27;;;;;;;11.00;2.13;;;;;;;22.92;33.49;100469.75;10394902;28;20103;-79
2022/07/15 08:08:33;;;;;;;6.45;2.08;;;;;;;22.46;33.21;100468.22;10393075;28;20068;-79
2022/07/15 08:13:36;;;;;;;8.10;1.92;;;;;;;22.16;33.60;100475.78;10392316;28;20060;-80
2022/07/15 08:18:39;;;;;;;7.80;2.08;;;;;;;24.56;30.86;100474.41;10396625;28;20553;-79
2022/07/15 08:23:43;;;;;;;6.10;1.90;;;;;;;26.15;28.13;100455.28;10384524;28;20046;-80
2022/07/15 08:28:45;;;;;;;6.68;1.88;;;;;;;24.86;30.02;100469.22;10394650;28;20049;-78
2022/07/15 08:34:07;;;;;;;6.18;2.05;;;;;;;24.54;30.40;100476.41;10392698;28;20076;-78
2022/07/15 08:39:18;;;;;;;5.43;2.30;;;;;;;25.89;28.22;100462.81;10394801;28;20053;-78
2022/07/15 08:44:21;;;;;;;6.43;2.25;;;;;;;26.23;28.04;100457.91;10393919;28;20049;-78
2022/07/15 08:49:25;;;;;;;4.65;1.95;;;;;;;25.95;28.57;100461.25;10389412;28;20065;-78
2022/07/15 08:54:29;;;;;;;5.97;2.00;;;;;;;25.16;29.20;100462.31;10393797;28;20045;-78
2022/07/15 08:59:33;;;;;;;5.57;1.98;;;;;;;24.86;28.92;100449.66;10393177;28;20053;-78
2022/07/15 09:04:58;;;;;;;7.50;2.10;;;;;;;24.45;30.49;100454.19;10383570;28;20115;-79
2022/07/15 09:10:05;;;;;;;5.68;2.00;;;;;;;23.60;31.10;100459.06;10387932;28;20112;-78
2022/07/15 09:15:07;;;;;;;8.00;2.15;;;;;;;22.69;31.64;100450.75;10388600;28;20050;-79
2022/07/15 09:20:13;;;;;;;6.43;2.17;;;;;;;23.15;31.12;100462.00;10385430;28;20491;-78
2022/07/15 09:25:15;;;;;;;5.38;1.77;;;;;;;24.30;29.30;100445.19;10397212;28;20053;-79
2022/07/15 09:36:50;;;;;;;6.72;2.05;;;;;;;25.58;26.60;100441.41;10391018;28;20045;-78
2022/07/15 09:41:53;;;;;;;5.22;1.70;;;;;;;25.33;27.35;100447.84;10390066;28;20045;-79
2022/07/15 09:47:03;;;;;;;5.97;2.20;;;;;;;26.24;26.46;100432.75;10399172;28;20429;-80
2022/07/15 09:52:09;;;;;;;6.93;1.98;;;;;;;26.12;25.85;100444.91;10391067;28;20461;-79
2022/07/15 09:57:17;;;;;;;3.90;1.70;;;;;;;25.10;27.01;100452.28;10391118;28;20422;-79
2022/07/15 10:02:26;;;;;;;4.03;1.90;;;;;;;25.96;25.73;100444.22;10390723;28;20053;-79
2022/07/15 10:07:30;;;;;;;4.30;1.73;;;;;;;26.87;24.67;100437.72;10404065;28;20864;-79
2022/07/15 10:12:59;;;;;;;5.60;1.92;;;;;;;27.19;23.47;100432.00;10390028;28;20490;-79
2022/07/15 10:18:28;;;;;;;6.63;1.90;;;;;;;27.33;22.63;100436.53;10347203;28;20053;-79
2022/07/15 10:23:42;;;;;;;5.38;1.88;;;;;;;26.85;23.54;100431.72;10385481;28;20056;-79
2022/07/15 10:28:53;;;;;;;6.32;1.75;;;;;;;26.09;24.16;100445.28;10387805;28;20862;-79
2022/07/15 10:34:04;;;;;;;5.50;2.03;;;;;;;25.17;25.47;100447.91;10389228;28;20061;-78
2022/07/15 10:39:08;;;;;;;6.65;1.83;;;;;;;24.45;26.60;100450.72;10391100;28;20054;-78
2022/07/15 10:44:11;;;;;;;3.83;1.23;;;;;;;23.78;26.96;100441.09;10389151;28;20392;-78
2022/07/15 10:49:29;;;;;;;6.15;1.65;;;;;;;24.09;25.64;100437.66;10391509;28;20633;-78
2022/07/15 10:54:32;;;;;;;3.83;1.42;;;;;;;24.05;25.82;100432.78;10398519;28;20416;-78
2022/07/15 10:59:46;;;;;;;2.45;1.38;;;;;;;24.19;24.92;100424.97;10399547;28;20111;-78
2022/07/15 11:05:18;;;;;;;7.63;1.73;;;;;;;24.26;25.25;100420.66;10404950;28;20053;-78
2022/07/15 11:10:26;;;;;;;6.45;1.73;;;;;;;23.76;26.72;100403.03;10396291;28;20053;-78
2022/07/15 11:15:32;;;;;;;5.30;1.50;;;;;;;23.32;27.08;100419.25;10396574;28;20049;-78
2022/07/15 11:20:36;;;;;;;3.95;1.50;;;;;;;23.17;27.64;100414.66;10399418;28;20053;-78
2022/07/15 11:25:41;;;;;;;7.03;1.70;;;;;;;23.08;26.39;100404.97;10395581;28;20045;-78
2022/07/15 11:30:49;;;;;;;59.92;6.78;;;;;;;23.42;26.39;100405.78;10395552;28;20049;-78
2022/07/15 11:35:54;;;;;;;3.40;1.50;;;;;;;24.36;25.35;100399.06;10399430;28;20071;-78
2022/07/15 11:46:31;;;;;;;5.07;1.48;;;;;;;24.34;24.83;100398.41;10394332;28;20056;-78
2022/07/15 11:51:33;;;;;;;3.88;1.45;;;;;;;23.82;25.94;100395.19;10392301;28;20085;-79
2022/07/15 11:56:35;;;;;;;5.55;1.40;;;;;;;24.42;25.90;100398.41;10393072;28;20091;-79
2022/07/15 12:01:41;;;;;;;5.10;1.60;;;;;;;24.04;26.07;100405.22;10389012;28;20568;-78
2022/07/15 12:06:50;;;;;;;3.55;1.55;;;;;;;24.61;25.99;100402.56;10392591;28;20058;-78
2022/07/15 12:11:54;;;;;;;8.77;1.60;;;;;;;24.72;25.00;100404.88;10406434;28;20678;-78
2022/07/15 12:16:57;;;;;;;5.32;1.40;;;;;;;24.71;24.88;100404.06;10392865;28;20100;-79
2022/07/15 12:22:05;;;;;;;3.83;1.33;;;;;;;24.73;24.01;100403.88;10393307;28;20053;-79
2022/07/15 12:27:15;;;;;;;2.60;1.33;;;;;;;24.80;25.25;100402.19;10404209;28;20110;-78
2022/07/15 12:32:17;;;;;;;3.22;1.40;;;;;;;25.28;23.83;100404.69;10390301;28;20140;-78
2022/07/15 12:37:34;;;;;;;2.50;1.20;;;;;;;25.63;23.99;100401.50;10385888;28;20971;-79
2022/07/15 12:42:51;;;;;;;6.32;1.40;;;;;;;25.84;23.02;100391.00;10380982;28;20045;-79
2022/07/15 12:47:56;;;;;;;5.95;1.48;;;;;;;25.24;24.40;100395.34;10395822;28;20582;-77
2022/07/15 12:53:00;;;;;;;5.75;1.65;;;;;;;25.48;24.41;100387.22;10391817;28;20053;-78
2022/07/15 12:58:09;;;;;;;4.90;1.40;;;;;;;25.42;23.64;100381.72;10384617;28;20123;-77
2022/07/15 13:03:20;;;;;;;4.30;1.48;;;;;;;25.04;24.31;100388.72;10388294;28;20553;-78
2022/07/15 13:08:30;;;;;;;5.47;1.40;;;;;;;24.58;24.45;100386.81;10389852;28;20048;-78
2022/07/15 13:14:03;;;;;;;6.00;1.50;;;;;;;23.51;26.23;100402.16;10389192;28;20851;-78
2022/07/15 13:19:04;;;;;;;3.63;1.80;;;;;;;23.54;26.40;100391.13;10391663;28;20272;-78
2022/07/15 13:24:06;;;;;;;4.40;1.35;;;;;;;23.84;25.72;100377.16;10392113;28;20116;-78
2022/07/15 13:29:10;;;;;;;3.55;1.40;;;;;;;24.27;25.08;100373.34;10389768;28;20099;-78
2022/07/15 13:34:12;;;;;;;5.10;1.50;;;;;;;24.60;25.10;100374.13;10386777;28;20045;-78
2022/07/15 13:39:16;;;;;;;5.10;1.70;;;;;;;24.58;25.64;100381.47;10390117;28;20491;-78
2022/07/15 13:44:25;;;;;;;4.43;1.40;;;;;;;24.87;24.85;100366.56;10391732;28;20054;-78
2022/07/15 13:54:55;;;;;;;11.93;1.88;;;;;;;24.63;24.33;100379.13;10386954;28;20057;-78
2022/07/15 13:59:57;;;;;;;4.55;1.50;;;;;;;24.74;24.29;100362.75;10386296;28;20061;-78
2022/07/15 14:04:59;;;;;;;5.07;1.50;;;;;;;24.83;25.88;100361.72;10390525;28;20045;-78
2022/07/15 14:10:04;;;;;;;4.70;1.73;;;;;;;25.12;24.54;100361.94;10393035;28;20049;-79
2022/07/15 14:15:06;;;;;;;4.82;1.40;;;;;;;25.38;24.12;100361.66;10391880;28;20058;-78
2022/07/15 14:20:08;;;;;;;5.78;1.60;;;;;;;25.40;24.01;100363.16;10391868;28;20057;-78
2022/07/15 14:25:11;;;;;;;4.35;1.30;;;;;;;25.46;23.68;100358.94;10396770;28;20064;-79
2022/07/15 14:30:13;;;;;;;5.53;1.48;;;;;;;25.21;23.92;100354.69;10401446;28;20053;-78
2022/07/15 14:35:15;;;;;;;5.18;1.48;;;;;;;24.84;23.60;100360.69;10401711;28;20720;-78
2022/07/15 14:40:19;;;;;;;4.40;1.90;;;;;;;25.04;24.21;100357.44;10402311;28;20057;-78
2022/07/15 14:45:20;;;;;;;4.50;1.50;;;;;;;25.05;23.38;100352.94;10401150;28;20059;-78
2022/07/15 14:50:22;;;;;;;2.92;1.50;;;;;;;25.25;22.99;100340.78;10397757;28;20057;-78
2022/07/15 14:55:24;;;;;;;3.83;1.58;;;;;;;24.98;23.76;100349.28;10398258;28;20053;-78
2022/07/15 15:00:33;;;;;;;6.30;1.40;;;;;;;24.95;24.03;100341.59;10400798;28;20053;-79
2022/07/15 15:05:35;;;;;;;3.33;1.40;;;;;;;24.94;23.20;100346.13;10401060;28;20166;-79
2022/07/15 15:10:37;;;;;;;6.47;1.60;;;;;;;25.09;23.52;100340.88;10402240;28;20107;-78
2022/07/15 15:15:38;;;;;;;4.78;1.63;;;;;;;24.83;23.84;100348.34;10400549;28;20498;-78
2022/07/15 15:20:40;;;;;;;4.80;1.50;;;;;;;24.96;23.49;100340.59;10399723;28;20120;-78
2022/07/15 15:31:02;;;;;;;3.45;1.42;;;;;;;25.00;23.80;100328.53;10398481;28;20080;-78
2022/07/15 15:36:05;;;;;;;3.53;1.35;;;;;;;25.04;23.78;100332.50;10398331;28;20115;-78
2022/07/15 15:41:07;;;;;;;4.72;1.50;;;;;;;25.13;23.90;100334.16;10398132;28;20484;-78
2022/07/15 15:46:09;;;;;;;5.18;1.40;;;;;;;25.22;22.77;100332.28;10399371;28;20930;-78
2022/07/15 15:51:11;;;;;;;5.38;1.35;;;;;;;25.31;23.49;100321.34;10397367;28;20099;-79
2022/07/15 15:56:13;;;;;;;2.55;1.20;;;;;;;25.25;22.81;100321.19;10396953;28;20693;-78
2022/07/15 16:01:15;;;;;;;3.83;1.40;;;;;;;24.50;23.12;100320.00;10395547;28;20057;-78
2022/07/15 16:06:17;;;;;;;5.15;1.40;;;;;;;24.18;24.02;100321.72;10397060;28;20053;-78
2022/07/15 16:11:24;;;;;;;3.60;1.30;;;;;;;24.22;24.00;100315.06;10405885;28;20166;-78
2022/07/15 16:16:26;;;;;;;4.05;1.40;;;;;;;24.76;24.24;100316.09;10394843;28;20081;-78
2022/07/15 16:26:48;;;;;;;5.63;1.60;;;;;;;25.28;23.06;100302.97;10396037;28;20060;-78
2022/07/15 16:31:50;;;;;;;5.45;1.75;;;;;;;25.19;23.58;100301.31;10393813;28;20055;-79
2022/07/15 16:36:52;;;;;;;3.28;1.60;;;;;;;24.84;23.43;100301.84;10396838;28;20054;-79
2022/07/15 16:41:54;;;;;;;4.70;1.90;;;;;;;24.97;23.96;100307.47;10395779;28;20049;-78
2022/07/15 16:46:55;;;;;;;4.95;1.58;;;;;;;25.17;23.96;100297.16;10394252;28;20646;-78
2022/07/15 16:51:58;;;;;;;3.78;1.40;;;;;;;25.17;24.10;100302.50;10394636;28;20495;-78
2022/07/15 16:57:00;;;;;;;5.97;1.70;;;;;;;25.09;23.52;100301.56;10396281;28;20065;-79
2022/07/15 17:02:02;;;;;;;4.97;1.70;;;;;;;25.08;23.45;100293.72;10395480;28;20057;-78
2022/07/15 17:07:06;;;;;;;3.55;1.50;;;;;;;24.69;23.88;100303.56;10394018;28;20570;-78
2022/07/15 17:12:09;;;;;;;5.38;1.60;;;;;;;24.37;24.75;100299.13;10388316;28;20053;-78
2022/07/15 17:17:10;;;;;;;5.57;1.60;;;;;;;24.14;24.79;100306.22;10393310;28;20057;-78
2022/07/15 17:22:12;;;;;;;4.65;1.40;;;;;;;24.11;24.88;100309.22;10389803;28;20049;-79
2022/07/15 17:27:14;;;;;;;5.13;1.60;;;;;;;23.85;25.09;100313.88;10392701;28;20457;-78
2022/07/15 17:32:16;;;;;;;7.68;1.83;;;;;;;23.69;25.46;100312.06;10390165;28;20057;-78
2022/07/15 17:37:18;;;;;;;3.78;1.42;;;;;;;23.47;25.81;100315.38;10391502;28;20060;-78
2022/07/15 17:42:20;;;;;;;6.28;1.77;;;;;;;23.59;26.29;100311.38;10385192;28;20756;-78
2022/07/15 17:53:23;;;;;;;4.95;1.65;;;;;;;24.02;26.45;100316.38;10393474;28;20085;-78
2022/07/15 17:58:24;;;;;;;5.03;1.50;;;;;;;23.94;25.90;100316.38;10390913;28;20065;-78
2022/07/15 18:03:26;;;;;;;4.05;2.15;;;;;;;24.07;26.74;100314.06;10392741;28;20111;-78
2022/07/15 18:08:29;;;;;;;5.60;1.80;;;;;;;24.01;26.76;100314.72;10392222;28;20554;-78
2022/07/15 18:13:31;;;;;;;3.72;1.77;;;;;;;23.83;26.54;100315.88;10393365;28;20111;-78
2022/07/15 18:18:33;;;;;;;3.63;1.60;;;;;;;23.71;27.10;100323.41;10394719;28;20126;-79
2022/07/15 18:23:35;;;;;;;6.38;1.80;;;;;;;23.68;26.91;100323.72;10391979;28;20049;-78
2022/07/15 18:28:37;;;;;;;5.93;1.77;;;;;;;23.66;27.16;100319.53;10392192;28;20054;-79
2022/07/15 18:33:39;;;;;;;5.57;2.00;;;;;;;23.36;27.32;100315.66;10391878;28;20060;-79
2022/07/15 18:38:40;;;;;;;5.45;1.77;;;;;;;23.04;27.42;100315.56;10390571;28;20057;-79
2022/07/15 18:43:42;;;;;;;6.20;1.70;;;;;;;22.99;28.10;100316.06;10392447;28;20045;-79
2022/07/15 18:48:44;;;;;;;5.75;2.10;;;;;;;22.64;28.82;100319.72;10393064;28;20120;-79
2022/07/15 18:53:46;;;;;;;4.25;1.70;;;;;;;22.66;28.86;100317.72;10407739;28;20084;-78
2022/07/15 18:58:48;;;;;;;10.23;1.80;;;;;;;22.67;28.97;100324.75;10386035;28;20057;-77
2022/07/15 19:03:50;;;;;;;5.10;1.60;;;;;;;22.52;28.66;100323.66;10387159;28;20053;-77
2022/07/15 19:08:53;;;;;;;4.13;1.70;;;;;;;22.20;29.22;100323.47;10389331;28;20072;-77
2022/07/15 19:13:55;;;;;;;4.50;1.60;;;;;;;21.91;30.01;100333.53;10397312;28;20465;-77
2022/07/15 19:18:57;;;;;;;5.80;1.60;;;;;;;21.75;29.59;100338.72;10393829;28;20419;-77
2022/07/15 19:23:59;;;;;;;4.82;1.60;;;;;;;21.59;30.26;100338.56;10396996;28;20053;-77
2022/07/15 19:29:09;;;;;;;3.92;1.50;;;;;;;21.34;29.89;100336.63;10398396;28;20049;-77
2022/07/15 19:34:11;;;;;;;5.82;2.47;;;;;;;20.88;31.07;100348.22;10399044;28;20053;-77
2022/07/15 19:39:13;;;;;;;8.07;3.08;;;;;;;20.31;32.45;100359.88;10397692;28;20053;-77
2022/07/15 19:44:16;;;;;;;5.18;2.40;;;;;;;19.73;33.73;100367.00;10398955;28;20076;-79
2022/07/15 19:49:18;;;;;;;5.43;2.22;;;;;;;19.68;34.08;100369.25;10395103;28;20072;-79
2022/07/15 19:54:20;;;;;;;6.55;1.67;;;;;;;19.68;33.95;100379.03;10395803;28;20069;-79
2022/07/15 20:04:42;;;;;;;5.43;1.67;;;;;;;19.52;34.44;100378.72;10398224;28;20450;-80
2022/07/15 20:09:44;;;;;;;4.93;1.80;;;;;;;19.24;35.39;100386.47;10397465;28;20064;-79
2022/07/15 20:14:47;;;;;;;3.80;1.60;;;;;;;18.99;35.67;100383.44;10396848;28;20522;-77
2022/07/15 20:19:49;;;;;;;6.13;1.60;;;;;;;18.70;35.99;100385.97;10390389;28;20046;-78
2022/07/15 20:24:51;;;;;;;5.80;1.45;;;;;;;18.62;36.12;100385.81;10391949;28;20102;-79
2022/07/15 20:29:53;;;;;;;4.68;1.80;;;;;;;18.63;36.49;100383.00;10395540;28;20050;-78
2022/07/15 20:34:55;;;;;;;6.40;1.80;;;;;;;18.52;36.81;100383.06;10387971;28;20053;-79
2022/07/15 20:39:56;;;;;;;5.20;1.60;;;;;;;18.26;37.32;100384.47;10396903;28;20065;-79
2022/07/15 20:44:58;;;;;;;4.55;1.50;;;;;;;18.18;37.76;100389.53;10397233;28;20069;-78
2022/07/15 20:50:18;;;;;;;5.30;1.75;;;;;;;17.98;38.71;100390.34;10386914;28;20614;-79
2022/07/15 20:55:20;;;;;;;;;;;;;;;17.50;39.00;100397.88;10393156;28;20564;-78
2022/07/15 21:00:22;;;;;;;4.05;1.77;;;;;;;17.75;38.85;100394.91;10385729;28;19983;-79
2022/07/15 21:05:24;;;;;;;5.05;1.77;;;;;;;17.65;39.23;100393.13;10411078;28;20053;-78
2022/07/15 21:10:26;;;;;;;5.85;1.83;;;;;;;17.57;39.40;100390.25;10394193;28;20407;-78
2022/07/15 21:15:28;;;;;;;5.70;1.65;;;;;;;17.52;39.80;100401.25;10389033;28;20046;-78
2022/07/15 21:20:31;;;;;;;4.13;1.80;;;;;;;17.39;39.99;100397.03;10389650;28;20049;-78
2022/07/15 21:30:54;;;;;;;4.60;1.90;;;;;;;17.10;40.56;100406.44;10389242;28;20091;-78
2022/07/15 21:35:57;;;;;;;4.10;1.48;;;;;;;17.04;40.93;100411.25;10386776;28;20060;-79
2022/07/15 21:41:00;;;;;;;5.93;1.45;;;;;;;17.00;41.36;100401.88;10390648;28;20152;-78
2022/07/15 21:46:02;;;;;;;4.43;1.73;;;;;;;16.87;41.46;100402.97;10390932;28;20495;-78
2022/07/15 21:51:05;;;;;;;4.70;1.67;;;;;;;16.84;41.70;100403.19;10391829;28;20115;-78
2022/07/15 21:56:06;;;;;;;6.63;1.70;;;;;;;16.74;41.77;100400.44;10381860;28;20119;-78
2022/07/15 22:01:09;;;;;;;5.38;1.70;;;;;;;16.57;42.05;100398.25;10389063;28;20072;-78
2022/07/15 22:06:10;;;;;;;4.30;1.80;;;;;;;16.45;42.41;100408.91;10392043;28;20054;-78
2022/07/15 22:11:12;;;;;;;6.75;1.80;;;;;;;16.30;42.84;100413.53;10391365;28;20060;-80
2022/07/15 22:16:14;;;;;;;5.85;1.90;;;;;;;16.21;43.04;100419.50;10387644;28;20045;-80
2022/07/15 22:21:16;;;;;;;2.70;1.58;;;;;;;16.24;43.01;100422.75;10380168;28;20053;-80
2022/07/15 22:26:18;;;;;;;3.90;1.80;;;;;;;16.20;43.07;100420.47;10386128;28;20053;-80
2022/07/15 22:31:20;;;;;;;5.05;1.60;;;;;;;16.13;43.24;100422.72;10390354;28;20060;-80
2022/07/15 22:36:23;;;;;;;6.93;2.40;;;;;;;16.10;43.03;100420.31;10390565;28;20446;-80
2022/07/15 22:41:24;;;;;;;3.50;1.70;;;;;;;16.10;43.21;100417.66;10381304;28;20099;-80
2022/07/15 22:46:26;;;;;;;6.55;1.80;;;;;;;15.94;43.86;100419.78;10390396;28;20049;-80
2022/07/15 22:51:28;;;;;;;4.70;1.63;;;;;;;15.63;44.17;100416.88;10393893;28;20135;-81
2022/07/15 22:56:30;;;;;;;5.10;1.77;;;;;;;15.53;44.36;100426.41;10393544;28;20127;-80
2022/07/15 23:01:32;;;;;;;4.47;1.83;;;;;;;15.40;45.03;100421.13;10399226;28;20499;-81
2022/07/15 23:06:34;;;;;;;6.85;1.67;;;;;;;15.26;45.20;100423.91;10391894;28;20046;-80
2022/07/15 23:11:35;;;;;;;4.20;1.85;;;;;;;15.15;45.53;100431.72;10398041;28;20050;-80
2022/07/15 23:16:37;;;;;;;4.70;1.70;;;;;;;15.02;46.14;100433.56;10395895;28;20115;-81
2022/07/15 23:21:39;;;;;;;4.53;1.90;;;;;;;14.90;46.39;100431.78;10393828;28;20100;-80
2022/07/15 23:26:41;;;;;;;5.43;1.92;;;;;;;14.96;46.26;100444.53;10397608;28;20049;-80
2022/07/15 23:31:43;;;;;;;4.80;1.92;;;;;;;14.93;46.53;100432.41;10393098;28;20054;-80
2022/07/15 23:37:05;;;;;;;4.07;1.70;;;;;;;14.92;46.62;100438.59;10375623;28;20052;-80
2022/07/15 23:42:06;;;;;;;4.90;1.90;;;;;;;14.88;46.68;100442.41;10399215;28;20920;-81
2022/07/15 23:47:08;;;;;;;4.35;1.80;;;;;;;14.70;47.14;100442.81;10391435;28;20483;-80
2022/07/15 23:52:10;;;;;;;5.43;1.88;;;;;;;14.70;47.22;100443.66;10395049;28;20053;-80
2022/07/15 23:57:12;;;;;;;4.40;2.03;;;;;;;14.71;46.88;100440.09;10388864;28;20088;-80
